createdAt,value
2019-04-28T00:02:05.675Z,100573.81
2019-04-28T00:04:36.274Z,100572.83
2019-04-28T00:07:06.839Z,100577.44
2019-04-28T00:09:37.427Z,100581.17
2019-04-28T00:12:10.989Z,100577.62
2019-04-28T00:14:44.723Z,100580.16
2019-04-28T00:17:15.403Z,100576.75
2019-04-28T00:19:45.999Z,100582.13
2019-04-28T00:22:18.370Z,100574.01
2019-04-28T00:24:56.540Z,100575.20
2019-04-28T00:27:31.662Z,100576.39
2019-04-28T00:30:07.408Z,100579.98
2019-04-28T00:32:37.998Z,100575.72
2019-04-28T00:35:08.744Z,100578.39
2019-04-28T00:37:41.794Z,100575.20
2019-04-28T00:40:14.391Z,100574.70
2019-04-28T00:42:44.988Z,100566.89
2019-04-28T00:45:16.234Z,100569.78
2019-04-28T00:47:47.770Z,100576.25
2019-04-28T00:50:18.360Z,100571.48
2019-04-28T00:52:48.951Z,100576.55
2019-04-28T00:55:21.271Z,100575.53
2019-04-28T00:57:51.901Z,100582.64
2019-04-28T01:00:24.196Z,100571.11
2019-04-28T01:02:54.805Z,100567.52
2019-04-28T01:05:25.779Z,100574.22
2019-04-28T01:07:56.400Z,100570.05
2019-04-28T01:10:28.211Z,100565.77
2019-04-28T01:13:02.155Z,100569.18
2019-04-28T01:15:49.712Z,100571.69
2019-04-28T01:18:21.926Z,100567.31
2019-04-28T01:20:54.136Z,100570.21
2019-04-28T01:23:26.158Z,100574.12
2019-04-28T01:25:57.725Z,100563.50
2019-04-28T01:28:29.739Z,100566.64
2019-04-28T01:31:03.345Z,100567.80
2019-04-28T01:33:35.558Z,100568.63
2019-04-28T01:36:07.600Z,100565.99
2019-04-28T01:38:40.180Z,100570.59
2019-04-28T01:41:10.961Z,100573.17
2019-04-28T01:43:41.783Z,100566.74
2019-04-28T01:46:12.402Z,100568.61
2019-04-28T01:48:42.983Z,100576.59
2019-04-28T01:51:13.537Z,100571.11
2019-04-28T01:53:44.890Z,100572.36
2019-04-28T01:56:17.388Z,100572.92
2019-04-28T01:58:49.976Z,100573.59
2019-04-28T02:01:21.551Z,100573.23
2019-04-28T02:03:54.118Z,100570.53
2019-04-28T02:06:25.612Z,100576.57
2019-04-28T02:08:57.185Z,100571.70
2019-04-28T02:11:29.150Z,100575.30
2019-04-28T02:14:00.260Z,100574.83
2019-04-28T02:16:30.840Z,100580.86
2019-04-28T02:19:01.407Z,100578.84
2019-04-28T02:21:33.611Z,100574.84
2019-04-28T02:24:22.736Z,100572.20
2019-04-28T02:26:53.493Z,100579.67
2019-04-28T02:29:24.088Z,100581.52
2019-04-28T02:31:54.680Z,100583.70
2019-04-28T02:34:25.259Z,100591.20
2019-04-28T02:36:55.830Z,100591.20
2019-04-28T02:39:30.898Z,100586.31
2019-04-28T02:42:01.502Z,100586.45
2019-04-28T02:44:35.089Z,100582.06
2019-04-28T02:47:04.744Z,100580.17
2019-04-28T02:49:40.666Z,100584.08
2019-04-28T02:52:13.094Z,100582.02
2019-04-28T02:54:43.694Z,100585.13
2019-04-28T02:57:14.301Z,100588.34
2019-04-28T02:59:45.095Z,100593.58
2019-04-28T03:02:15.737Z,100586.84
2019-04-28T03:04:46.473Z,100589.91
2019-04-28T03:07:17.219Z,100595.00
2019-04-28T03:09:47.868Z,100593.48
2019-04-28T03:12:21.311Z,100597.38
2019-04-28T03:14:50.894Z,100602.44
2019-04-28T03:17:21.538Z,100599.70
2019-04-28T03:19:52.116Z,100604.84
2019-04-28T03:22:22.768Z,100600.61
2019-04-28T03:24:54.968Z,100602.64
2019-04-28T03:27:27.179Z,100607.98
2019-04-28T03:30:15.803Z,100610.54
2019-04-28T03:32:55.435Z,100612.27
2019-04-28T03:35:23.019Z,100624.59
2019-04-28T03:37:53.803Z,100621.69
2019-04-28T03:40:24.384Z,100618.39
2019-04-28T03:42:59.286Z,100622.11
2019-04-28T03:45:30.857Z,100626.31
2019-04-28T03:48:02.179Z,100630.11
2019-04-28T03:50:32.759Z,100627.97
2019-04-28T03:53:03.401Z,100629.27
2019-04-28T03:55:37.891Z,100636.34
2019-04-28T03:58:10.402Z,100633.21
2019-04-28T04:00:43.150Z,100641.23
2019-04-28T04:03:13.696Z,100643.80
2019-04-28T04:05:47.455Z,100651.30
2019-04-28T04:08:20.997Z,100649.50
2019-04-28T04:11:00.281Z,100650.72
2019-04-28T04:13:36.355Z,100653.75
2019-04-28T04:16:26.854Z,100657.07
2019-04-28T04:19:00.695Z,100659.22
2019-04-28T04:21:31.466Z,100662.12
2019-04-28T04:24:02.143Z,100657.39
2019-04-28T04:26:33.535Z,100659.44
2019-04-28T04:29:05.520Z,100659.35
2019-04-28T04:31:36.062Z,100658.40
2019-04-28T04:34:06.671Z,100666.55
2019-04-28T04:36:37.225Z,100665.55
2019-04-28T04:39:10.541Z,100670.78
2019-04-28T04:41:43.657Z,100672.70
2019-04-28T04:44:21.034Z,100679.23
2019-04-28T04:46:52.016Z,100683.42
2019-04-28T04:49:22.955Z,100686.16
2019-04-28T04:51:54.717Z,100681.78
2019-04-28T04:54:27.264Z,100685.74
2019-04-28T04:57:01.807Z,100685.42
2019-04-28T04:59:33.950Z,100695.13
2019-04-28T05:02:06.297Z,100698.37
2019-04-28T05:04:39.565Z,100704.49
2019-04-28T05:07:10.851Z,100715.38
2019-04-28T05:09:41.478Z,100719.97
2019-04-28T05:12:12.070Z,100714.63
2019-04-28T05:14:43.189Z,100717.16
2019-04-28T05:17:13.796Z,100731.58
2019-04-28T05:19:44.377Z,100729.97
2019-04-28T05:22:16.578Z,100728.30
2019-04-28T05:24:54.400Z,100723.00
2019-04-28T05:27:25.575Z,100732.88
2019-04-28T05:30:02.525Z,100733.10
2019-04-28T05:32:41.482Z,100726.19
2019-04-28T05:35:01.993Z,100730.63
2019-04-28T05:37:32.545Z,100734.61
2019-04-28T05:40:03.106Z,100737.95
2019-04-28T05:42:33.686Z,100741.37
2019-04-28T05:45:07.517Z,100749.13
2019-04-28T05:47:38.039Z,100745.42
2019-04-28T05:50:10.683Z,100742.18
2019-04-28T05:53:01.247Z,100745.41
2019-04-28T05:55:33.440Z,100743.56
2019-04-28T05:58:09.873Z,100749.34
2019-04-28T06:00:57.372Z,100747.43
2019-04-28T06:03:30.237Z,100754.34
2019-04-28T06:06:00.910Z,100753.89
2019-04-28T06:08:34.239Z,100758.34
2019-04-28T06:11:07.173Z,100759.03
2019-04-28T06:13:38.046Z,100767.20
2019-04-28T06:16:09.900Z,100769.92
2019-04-28T06:18:42.137Z,100769.41
2019-04-28T06:21:12.990Z,100771.77
2019-04-28T06:23:43.509Z,100777.36
2019-04-28T06:26:14.219Z,100777.64
2019-04-28T06:28:44.779Z,100778.53
2019-04-28T06:31:16.351Z,100778.20
2019-04-28T06:33:47.523Z,100777.16
2019-04-28T06:36:18.129Z,100783.67
2019-04-28T06:38:48.759Z,100779.16
2019-04-28T06:41:19.338Z,100783.61
2019-04-28T06:43:49.890Z,100785.22
2019-04-28T06:46:20.457Z,100785.89
2019-04-28T06:48:51.059Z,100788.78
2019-04-28T06:51:21.648Z,100788.20
2019-04-28T06:53:54.158Z,100791.16
2019-04-28T06:56:24.803Z,100792.71
2019-04-28T06:58:59.295Z,100791.51
2019-04-28T07:01:31.739Z,100801.72
2019-04-28T07:04:04.367Z,100797.97
2019-04-28T07:06:34.996Z,100789.98
2019-04-28T07:09:07.243Z,100790.48
2019-04-28T07:11:40.044Z,100792.38
2019-04-28T07:14:10.711Z,100797.98
2019-04-28T07:16:41.334Z,100796.47
2019-04-28T07:19:11.945Z,100797.30
2019-04-28T07:22:02.473Z,100802.91
2019-04-28T07:24:33.197Z,100804.13
2019-04-28T07:27:05.648Z,100812.30
2019-04-28T07:29:36.205Z,100821.84
2019-04-28T07:32:06.785Z,100820.31
2019-04-28T07:34:38.338Z,100822.69
2019-04-28T07:37:09.785Z,100822.35
2019-04-28T07:39:42.239Z,100826.77
2019-04-28T07:42:12.825Z,100832.72
2019-04-28T07:44:43.396Z,100836.28
2019-04-28T07:47:13.956Z,100844.63
2019-04-28T07:49:44.535Z,100836.30
2019-04-28T07:52:16.733Z,100844.95
2019-04-28T07:54:47.306Z,100845.47
2019-04-28T07:57:17.953Z,100846.50
2019-04-28T07:59:48.525Z,100852.28
2019-04-28T08:02:19.308Z,100862.70
2019-04-28T08:04:50.984Z,100860.14
2019-04-28T08:07:21.595Z,100858.59
2019-04-28T08:09:52.657Z,100862.19
2019-04-28T08:12:23.394Z,100866.63
2019-04-28T08:14:54.124Z,100866.14
2019-04-28T08:17:24.896Z,100868.83
2019-04-28T08:19:55.471Z,100869.03
2019-04-28T08:22:26.235Z,100875.84
2019-04-28T08:24:56.843Z,100876.17
2019-04-28T08:27:27.412Z,100873.63
2019-04-28T08:29:58.952Z,100872.09
2019-04-28T08:32:37.249Z,100882.12
2019-04-28T08:35:08.340Z,100887.91
2019-04-28T08:37:38.906Z,100890.98
2019-04-28T08:40:09.757Z,100887.05
2019-04-28T08:42:40.647Z,100893.18
2019-04-28T08:45:11.985Z,100898.25
2019-04-28T08:47:42.790Z,100898.11
2019-04-28T08:50:13.831Z,100896.92
2019-04-28T08:52:44.692Z,100897.27
2019-04-28T08:55:15.587Z,100904.59
2019-04-28T08:57:46.472Z,100902.89
2019-04-28T09:00:17.573Z,100907.16
2019-04-28T09:02:48.444Z,100906.51
2019-04-28T09:05:19.516Z,100906.12
2019-04-28T09:07:50.205Z,100919.73
2019-04-28T09:10:21.301Z,100919.36
2019-04-28T09:12:53.169Z,100913.73
2019-04-28T09:15:24.051Z,100918.66
2019-04-28T09:17:54.734Z,100914.92
2019-04-28T09:20:25.424Z,100915.95
2019-04-28T09:22:56.088Z,100907.95
2019-04-28T09:25:27.116Z,100907.27
2019-04-28T09:27:57.816Z,100910.83
2019-04-28T09:30:28.390Z,100912.31
2019-04-28T09:32:59.015Z,100906.98
2019-04-28T09:35:29.589Z,100913.84
2019-04-28T09:38:00.210Z,100917.08
2019-04-28T09:40:30.842Z,100913.61
2019-04-28T09:43:03.087Z,100916.17
2019-04-28T09:45:35.411Z,100917.83
2019-04-28T09:48:07.361Z,100912.10
2019-04-28T09:50:38.490Z,100915.16
2019-04-28T09:53:09.514Z,100915.66
2019-04-28T09:55:40.496Z,100916.80
2019-04-28T09:58:11.116Z,100918.37
2019-04-28T10:00:42.377Z,100913.11
2019-04-28T10:03:13.718Z,100909.38
2019-04-28T10:05:44.881Z,100919.94
2019-04-28T10:08:15.957Z,100912.52
2019-04-28T10:10:46.886Z,100914.98
2019-04-28T10:13:17.854Z,100919.67
2019-04-28T10:15:49.239Z,100920.45
2019-04-28T10:18:19.877Z,100926.31
2019-04-28T10:20:50.951Z,100925.75
2019-04-28T10:23:21.677Z,100924.45
2019-04-28T10:25:53.037Z,100924.97
2019-04-28T10:28:24.108Z,100922.64
2019-04-28T10:30:54.756Z,100927.41
2019-04-28T10:33:25.713Z,100927.47
2019-04-28T10:35:56.261Z,100927.23
2019-04-28T10:38:26.856Z,100931.64
2019-04-28T10:41:02.012Z,100935.64
2019-04-28T10:43:34.036Z,100923.97
2019-04-28T10:46:08.320Z,100922.27
2019-04-28T10:48:38.968Z,100923.12
2019-04-28T10:51:09.527Z,100926.80
2019-04-28T10:53:40.288Z,100927.55
2019-04-28T10:56:10.869Z,100930.19
2019-04-28T10:58:43.367Z,100933.12
2019-04-28T11:01:14.134Z,100932.93
2019-04-28T11:03:46.351Z,100929.92
2019-04-28T11:06:17.020Z,100923.62
2019-04-28T11:08:49.233Z,100929.64
2019-04-28T11:11:21.475Z,100929.57
2019-04-28T11:13:55.604Z,100928.38
2019-04-28T11:23:28.200Z,100935.02
2019-04-28T11:25:59.558Z,100935.09
2019-04-28T11:28:30.211Z,100935.29
2019-04-28T11:31:00.953Z,100932.86
2019-04-28T11:33:39.234Z,100941.47
2019-04-28T11:36:09.921Z,100941.64
2019-04-28T11:38:40.844Z,100944.11
2019-04-28T11:41:12.028Z,100947.45
2019-04-28T11:43:42.800Z,100948.19
2019-04-28T11:46:15.316Z,100946.16
2019-04-28T11:48:46.746Z,100956.01
2019-04-28T11:51:17.650Z,100944.38
2019-04-28T11:53:48.389Z,100946.41
2019-04-28T11:56:19.288Z,100943.03
2019-04-28T11:58:50.883Z,100940.10
2019-04-28T12:01:23.732Z,100945.20
2019-04-28T12:03:56.720Z,100952.58
2019-04-28T12:06:27.915Z,100952.71
2019-04-28T12:09:00.163Z,100948.63
2019-04-28T12:11:36.009Z,100952.83
2019-04-28T12:14:17.951Z,100956.66
2019-04-28T12:17:02.628Z,100964.31
2019-04-28T12:19:43.899Z,100956.66
2019-04-28T12:22:14.473Z,100954.27
2019-04-28T12:24:45.383Z,100955.87
2019-04-28T12:27:15.950Z,100955.05
2019-04-28T12:29:46.782Z,100955.35
2019-04-28T12:32:19.651Z,100956.98
2019-04-28T12:34:50.216Z,100955.03
2019-04-28T12:37:20.807Z,100959.70
2019-04-28T12:39:51.379Z,100954.34
2019-04-28T12:42:21.968Z,100952.45
2019-04-28T12:44:52.548Z,100960.33
2019-04-28T12:47:23.142Z,100962.56
2019-04-28T12:49:55.374Z,100967.38
2019-04-28T12:52:28.874Z,100954.80
2019-04-28T12:55:01.624Z,100954.05
2019-04-28T12:57:33.204Z,100957.80
2019-04-28T13:00:10.018Z,100954.78
2019-04-28T13:02:42.331Z,100952.02
2019-04-28T13:05:17.609Z,100956.13
2019-04-28T13:07:48.602Z,100952.11
2019-04-28T13:10:19.373Z,100955.35
2019-04-28T13:21:01.339Z,100954.59
2019-04-28T13:23:31.895Z,100957.34
2019-04-28T13:26:02.953Z,100956.77
2019-04-28T13:28:33.648Z,100951.98
2019-04-28T13:31:04.239Z,100958.88
2019-04-28T13:33:34.777Z,100955.41
2019-04-28T13:36:14.577Z,100956.10
2019-04-28T13:38:37.677Z,100959.19
2019-04-28T13:41:08.249Z,100951.07
2019-04-28T13:43:38.818Z,100948.34
2019-04-28T13:46:09.521Z,100948.36
2019-04-28T13:48:40.183Z,100952.27
2019-04-28T13:51:10.938Z,100944.45
2019-04-28T13:53:42.632Z,100953.64
2019-04-28T13:56:13.174Z,100950.24
2019-04-28T13:58:44.985Z,100954.16
2019-04-28T14:01:20.450Z,100947.02
2019-04-28T14:03:52.873Z,100951.31
2019-04-28T14:06:28.366Z,100956.59
2019-04-28T14:08:57.417Z,100959.31
2019-04-28T14:11:27.965Z,100956.39
2019-04-28T14:13:58.575Z,100956.53
2019-04-28T14:16:29.580Z,100954.21
2019-04-28T14:19:00.542Z,100951.61
2019-04-28T14:21:31.561Z,100953.83
2019-04-28T14:24:02.885Z,100954.16
2019-04-28T14:26:33.891Z,100956.38
2019-04-28T14:29:05.391Z,100957.22
2019-04-28T14:31:36.785Z,100956.20
2019-04-28T14:34:08.019Z,100955.52
2019-04-28T14:36:42.285Z,100954.84
2019-04-28T14:39:11.045Z,100956.05
2019-04-28T14:41:42.823Z,100959.62
2019-04-28T14:44:13.475Z,100962.16
2019-04-28T14:46:44.058Z,100963.81
2019-04-28T14:49:14.647Z,100960.55
2019-04-28T14:51:45.278Z,100964.64
2019-04-28T14:54:16.031Z,100968.23
2019-04-28T14:56:46.659Z,100961.39
2019-04-28T14:59:17.721Z,100963.92
2019-04-28T15:01:53.140Z,100968.02
2019-04-28T15:04:42.005Z,100961.04
2019-04-28T15:07:15.353Z,100966.42
2019-04-28T15:10:00.595Z,100963.20
2019-04-28T15:12:31.202Z,100967.64
2019-04-28T15:15:01.835Z,100969.00
2019-04-28T15:17:33.064Z,100971.56
2019-04-28T15:20:05.284Z,100974.94
2019-04-28T15:22:36.518Z,100969.97
2019-04-28T15:25:07.710Z,100974.86
2019-04-28T15:27:38.318Z,100971.30
2019-04-28T15:30:11.073Z,100977.58
2019-04-28T15:32:41.632Z,100980.99
2019-04-28T15:35:12.319Z,100986.59
2019-04-28T15:37:43.372Z,100981.98
2019-04-28T15:40:14.221Z,100983.85
2019-04-28T15:42:45.027Z,100991.70
2019-04-28T15:45:15.982Z,100996.13
2019-04-28T15:47:47.118Z,100985.70
2019-04-28T15:50:19.965Z,100988.88
2019-04-28T15:52:53.609Z,100993.98
2019-04-28T15:55:32.251Z,100993.09
2019-04-28T15:58:21.314Z,100996.99
2019-04-28T16:00:52.505Z,101000.64
2019-04-28T16:03:25.224Z,101003.73
2019-04-28T16:05:56.210Z,101002.47
2019-04-28T16:08:27.134Z,101008.23
2019-04-28T16:10:58.596Z,101001.23
2019-04-28T16:13:29.316Z,101003.84
2019-04-28T16:16:00.001Z,100998.37
2019-04-28T16:18:30.972Z,100998.74
2019-04-28T16:21:01.749Z,101002.34
2019-04-28T16:23:32.899Z,100999.46
2019-04-28T16:26:04.439Z,101001.81
2019-04-28T16:28:35.465Z,100997.69
2019-04-28T16:31:06.320Z,101003.04
2019-04-28T16:33:36.980Z,101002.94
2019-04-28T16:36:08.251Z,101004.88
2019-04-28T16:38:38.932Z,101006.69
2019-04-28T16:41:19.313Z,101009.66
2019-04-28T16:43:51.872Z,101003.45
2019-04-28T16:46:22.482Z,101003.11
2019-04-28T16:48:53.171Z,101004.78
2019-04-28T16:51:24.071Z,101007.54
2019-04-28T16:53:54.778Z,101010.00
2019-04-28T16:56:36.133Z,101007.88
2019-04-28T16:59:24.685Z,101008.45
2019-04-28T17:02:03.062Z,101007.06
2019-04-28T17:04:33.757Z,101008.96
2019-04-28T17:07:05.749Z,101009.12
2019-04-28T17:09:37.349Z,101008.55
2019-04-28T17:12:08.375Z,101004.47
2019-04-28T17:14:40.733Z,101006.37
2019-04-28T17:17:12.207Z,101005.15
2019-04-28T17:19:43.133Z,101010.66
2019-04-28T17:22:14.003Z,101007.98
2019-04-28T17:24:44.555Z,101006.27
2019-04-28T17:27:15.134Z,101009.69
2019-04-28T17:29:45.691Z,101007.98
2019-04-28T17:32:17.218Z,101013.68
2019-04-28T17:34:47.821Z,101013.80
2019-04-28T17:37:18.479Z,101016.94
2019-04-28T17:39:49.062Z,101020.08
2019-04-28T17:42:19.741Z,101025.75
2019-04-28T17:44:51.986Z,101024.13
2019-04-28T17:47:23.110Z,101028.20
2019-04-28T17:49:53.710Z,101022.62
2019-04-28T17:52:24.539Z,101027.51
2019-04-28T17:54:56.676Z,101031.82
2019-04-28T17:57:28.258Z,101034.10
2019-04-28T18:00:00.792Z,101034.14
2019-04-28T18:02:42.475Z,101033.44
2019-04-28T18:05:22.311Z,101037.52
2019-04-28T18:07:56.566Z,101040.73
2019-04-28T18:10:27.930Z,101047.48
2019-04-28T18:13:00.834Z,101041.70
2019-04-28T18:15:35.716Z,101047.86
2019-04-28T18:18:11.949Z,101052.81
2019-04-28T18:20:42.608Z,101058.60
2019-04-28T18:23:13.182Z,101057.55
2019-04-28T18:25:43.810Z,101060.59
2019-04-28T18:28:14.548Z,101062.25
2019-04-28T18:30:46.894Z,101059.67
2019-04-28T18:33:37.650Z,101061.38
2019-04-28T18:36:11.455Z,101069.15
2019-04-28T18:38:55.865Z,101066.53
2019-04-28T18:41:40.514Z,101070.77
2019-04-28T18:44:15.461Z,101066.69
2019-04-28T18:46:46.473Z,101072.88
2019-04-28T18:49:17.131Z,101070.97
2019-04-28T18:51:48.079Z,101077.85
2019-04-28T18:54:19.102Z,101082.98
2019-04-28T18:56:51.329Z,101078.01
2019-04-28T18:59:24.279Z,101079.97
2019-04-28T19:02:05.729Z,101083.28
2019-04-28T19:04:37.600Z,101080.97
2019-04-28T19:07:10.378Z,101081.22
2019-04-28T19:09:45.679Z,101083.03
2019-04-28T19:12:19.494Z,101090.23
2019-04-28T19:14:54.549Z,101086.66
2019-04-28T19:17:27.066Z,101090.63
2019-04-28T19:20:01.216Z,101088.20
2019-04-28T19:22:33.874Z,101087.20
2019-04-28T19:25:07.009Z,101082.42
2019-04-28T19:27:38.163Z,101083.68
2019-04-28T19:30:09.454Z,101081.72
2019-04-28T19:32:40.218Z,101081.95
2019-04-28T19:35:12.074Z,101085.23
2019-04-28T19:37:43.219Z,101077.94
2019-04-28T19:40:15.418Z,101077.83
2019-04-28T19:42:46.397Z,101077.98
2019-04-28T19:45:18.812Z,101078.15
2019-04-28T19:47:49.791Z,101081.00
2019-04-28T19:50:21.761Z,101076.12
2019-04-28T19:52:56.469Z,101075.38
2019-04-28T19:55:28.434Z,101072.14
2019-04-28T19:58:06.727Z,101076.36
2019-04-28T20:00:51.405Z,101075.86
2019-04-28T20:03:22.189Z,101073.14
2019-04-28T20:05:52.744Z,101071.28
2019-04-28T20:08:23.306Z,101071.23
2019-04-28T20:10:54.366Z,101057.28
2019-04-28T20:13:25.155Z,101067.86
2019-04-28T20:15:55.737Z,101060.48
2019-04-28T20:18:29.393Z,101058.98
2019-04-28T20:20:58.968Z,101059.94
2019-04-28T20:23:29.619Z,101059.28
2019-04-28T20:26:00.258Z,101060.29
2019-04-28T20:28:30.871Z,101057.16
2019-04-28T20:31:01.521Z,101058.16
2019-04-28T20:33:32.101Z,101050.03
2019-04-28T20:36:13.381Z,101052.62
2019-04-28T20:38:45.780Z,101062.34
2019-04-28T20:41:20.038Z,101064.03
2019-04-28T20:43:51.280Z,101063.19
2019-04-28T20:46:21.873Z,101054.78
2019-04-28T20:48:52.492Z,101061.14
2019-04-28T20:51:23.103Z,101063.20
2019-04-28T20:53:53.704Z,101055.35
2019-04-28T20:56:24.269Z,101058.56
2019-04-28T20:58:54.991Z,101058.50
2019-04-28T21:01:25.650Z,101062.55
2019-04-28T21:03:56.239Z,101060.20
2019-04-28T21:06:26.816Z,101061.94
2019-04-28T21:08:57.482Z,101057.16
2019-04-28T21:11:27.996Z,101057.16
2019-04-28T21:13:58.599Z,101049.97
2019-04-28T21:16:29.170Z,101048.10
2019-04-28T21:18:59.746Z,101052.39
2019-04-28T21:21:30.323Z,101055.16
2019-04-28T21:24:02.705Z,101052.66
2019-04-28T21:26:33.257Z,101048.17
2019-04-28T21:29:04.034Z,101048.30
2019-04-28T21:31:34.618Z,101053.52
2019-04-28T21:34:05.292Z,101049.48
2019-04-28T21:36:36.241Z,101047.63
2019-04-28T21:39:08.966Z,101041.95
2019-04-28T21:41:40.798Z,101041.80
2019-04-28T21:44:19.238Z,101037.02
2019-04-28T21:46:51.455Z,101045.45
2019-04-28T21:49:26.336Z,101039.91
2019-04-28T21:51:58.443Z,101040.03
2019-04-28T21:54:29.068Z,101037.03
2019-04-28T21:56:59.663Z,101029.77
2019-04-28T21:59:30.312Z,101031.34
2019-04-28T22:02:00.979Z,101031.34
2019-04-28T22:04:31.589Z,101020.44
2019-04-28T22:07:02.190Z,101020.87
2019-04-28T22:09:33.001Z,101020.45
2019-04-28T22:12:03.668Z,101016.88
2019-04-28T22:14:35.408Z,101002.91
2019-04-28T22:17:07.711Z,101004.05
2019-04-28T22:19:38.264Z,101005.05
2019-04-28T22:22:09.052Z,101005.33
2019-04-28T22:24:47.490Z,101002.69
2019-04-28T22:27:19.787Z,100995.91
2019-04-28T22:29:50.394Z,100996.77
2019-04-28T22:32:21.002Z,101000.20
2019-04-28T22:34:51.564Z,100996.41
2019-04-28T22:37:22.137Z,100996.25
2019-04-28T22:39:52.741Z,100997.66
2019-04-28T22:42:23.554Z,100998.04
2019-04-28T22:44:54.387Z,100993.53
2019-04-28T22:47:24.941Z,100996.16
2019-04-28T22:49:55.556Z,101003.61
2019-04-28T22:52:26.158Z,101004.55
2019-04-28T22:54:58.396Z,101004.03
2019-04-28T22:57:30.639Z,100995.83
2019-04-28T23:00:01.460Z,100994.34
2019-04-28T23:02:33.645Z,100998.20
2019-04-28T23:05:08.323Z,100995.57
2019-04-28T23:07:39.063Z,100986.93
2019-04-28T23:10:10.468Z,100985.72
2019-04-28T23:12:41.077Z,100980.36
2019-04-28T23:15:14.018Z,100978.66
2019-04-28T23:17:44.487Z,100971.23
2019-04-28T23:20:15.514Z,100972.27
2019-04-28T23:22:47.862Z,100973.56
2019-04-28T23:25:19.544Z,100962.43
2019-04-28T23:27:50.148Z,100958.36
2019-04-28T23:30:42.183Z,100957.42
2019-04-28T23:33:13.060Z,100957.62
2019-04-28T23:35:43.910Z,100948.23
2019-04-28T23:38:14.651Z,100939.24
2019-04-28T23:40:47.351Z,100929.84
2019-04-28T23:43:23.490Z,100916.38
2019-04-28T23:45:54.139Z,100916.55
2019-04-28T23:48:24.743Z,100912.73
2019-04-28T23:50:56.994Z,100911.22
2019-04-28T23:53:38.354Z,100900.17
2019-04-28T23:56:08.958Z,100900.67
2019-04-28T23:58:39.583Z,100910.48
